Glen Oaks, New York
Current Conditions -  °F | °C
As of 3:51 PM on Friday 19 Dec 2014 (Local Time) from KJFK Reporting Station
Few Clouds Few Clouds  
Wind Chill: -2°   Ceiling: Unl
Heat Index:   Visibility: 10mi
Dew Point: -7°   Wind: 15mph
Humidity: 47%   Direction: 310°NW
Pressure: 30.07"   Gusts: NA
Location:  40.75°N, 73.71°W
Report Text: KJFK 192051Z 31013KT 10SM FEW045 03/M07 A3007 RMK AO2 SLP183 T00331072 53012
Loading
Personal Weather Stations






























Interactive Weather Map New forecast layout! Learn more

10-Day Weather Forecast

Advertisements
Track Severe Weather on mobile